Time;durP1;ratioP1;P1;durP2;ratioP2;P2;SDS_P1;SDS_P2;PMS_P1;PMS_P2;Temp;Humidity;BMP_temperature;BMP_pressure;BME280_temperature;BME280_humidity;BME280_pressure;Samples;Min_cycle;Max_cycle;Signal;HPM_P1;HPM_P2
2022/11/04 00:01:02;;;;;;;;;1.20;1.20;;;;;;;;5201908;28;8802;-73
2022/11/04 00:03:52;;;;;;;;;1.00;1.00;;;;;;;;5203361;28;8952;-73
2022/11/04 00:06:24;;;;;;;;;1.00;1.00;;;;;;;;5181455;28;8784;-73
2022/11/04 00:09:20;;;;;;;;;4.00;4.00;;;;;;;;5183302;28;8930;-72
2022/11/04 00:14:41;;;;;;;;;1.40;1.40;;;;;;;;5181803;28;8792;-72
2022/11/04 00:17:20;;;;;;;;;3.60;3.60;;;;;;;;5165026;28;8773;-71
2022/11/04 00:33:59;;;;;;;;;2.00;2.00;;;;;;;;5179485;28;8791;-73
2022/11/04 00:36:30;;;;;;;;;3.60;3.60;;;;;;;;5180028;28;8800;-73
2022/11/04 00:39:02;;;;;;;;;4.40;4.40;;;;;;;;5163947;28;8866;-73
2022/11/04 00:41:51;;;;;;;;;1.60;1.60;;;;;;;;5181486;28;8791;-73
2022/11/04 00:44:22;;;;;;;;;4.00;4.00;;;;;;;;5163843;28;8819;-73
2022/11/04 00:46:53;;;;;;;;;2.00;2.00;;;;;;;;5180088;28;10891;-74
2022/11/04 00:49:24;;;;;;;;;14.40;13.80;;;;;;;;5181320;28;10623;-74
2022/11/04 00:52:13;;;;;;;;;12.80;12.00;;;;;;;;5201023;28;8766;-73
2022/11/04 00:54:44;;;;;;;;;8.40;8.40;;;;;;;;5179843;28;8868;-73
2022/11/04 00:57:15;;;;;;;;;1.20;1.20;;;;;;;;5163610;28;8784;-72
2022/11/04 00:59:46;;;;;;;;;7.60;7.60;;;;;;;;5180676;28;8772;-72
2022/11/04 01:02:17;;;;;;;;;10.00;10.00;;;;;;;;5179660;28;8868;-72
2022/11/04 01:05:06;;;;;;;;;5.60;5.60;;;;;;;;5180487;28;8792;-74
2022/11/04 01:07:37;;;;;;;;;6.00;6.00;;;;;;;;5168601;28;8912;-74
2022/11/04 01:10:26;;;;;;;;;5.00;5.00;;;;;;;;5201515;28;8832;-75
2022/11/04 01:13:16;;;;;;;;;8.60;8.60;;;;;;;;5187304;28;9495;-73
2022/11/04 01:16:07;;;;;;;;;4.60;4.60;;;;;;;;5200970;28;8796;-74
2022/11/04 01:18:38;;;;;;;;;4.00;4.00;;;;;;;;5168071;28;9611;-74
2022/11/04 01:21:11;;;;;;;;;2.00;2.00;;;;;;;;5184525;28;8815;-75
2022/11/04 01:23:43;;;;;;;;;1.00;1.00;;;;;;;;5184449;28;9532;-74
2022/11/04 01:26:33;;;;;;;;;3.80;3.80;;;;;;;;5206931;28;8812;-72
2022/11/04 01:29:04;;;;;;;;;8.20;8.20;;;;;;;;5207363;28;8782;-72
2022/11/04 01:31:35;;;;;;;;;4.40;4.40;;;;;;;;5186457;28;8811;-72
2022/11/04 01:34:07;;;;;;;;;4.00;4.00;;;;;;;;5170903;28;8792;-72
2022/11/04 01:36:39;;;;;;;;;4.80;4.80;;;;;;;;5170659;28;8793;-73
2022/11/04 01:39:10;;;;;;;;;0.20;0.20;;;;;;;;5170890;28;8795;-73
2022/11/04 01:41:42;;;;;;;;;3.60;3.60;;;;;;;;5188081;28;8768;-73
2022/11/04 01:44:31;;;;;;;;;4.00;4.00;;;;;;;;5170853;28;8988;-73
2022/11/04 01:47:03;;;;;;;;;1.00;1.00;;;;;;;;5172687;28;9522;-72
2022/11/04 01:49:38;;;;;;;;;2.00;2.00;;;;;;;;5207235;28;8770;-71
2022/11/04 01:52:33;;;;;;;;;6.00;6.00;;;;;;;;5207440;28;8785;-72
2022/11/04 01:55:08;;;;;;;;;13.40;13.40;;;;;;;;5174782;28;8766;-73
2022/11/04 01:57:40;;;;;;;;;9.40;9.40;;;;;;;;5174521;28;8876;-73
2022/11/04 02:00:30;;;;;;;;;18.20;18.20;;;;;;;;5207494;28;8792;-72
2022/11/04 02:03:14;;;;;;;;;18.80;18.80;;;;;;;;5186269;28;8835;-73
2022/11/04 02:05:46;;;;;;;;;19.20;19.20;;;;;;;;5170307;28;8780;-73
2022/11/04 02:08:18;;;;;;;;;36.80;32.20;;;;;;;;5199403;28;9449;-73
2022/11/04 02:10:58;;;;;;;;;9.40;9.40;;;;;;;;5186128;28;8800;-73
2022/11/04 02:13:31;;;;;;;;;12.00;12.00;;;;;;;;5170514;28;8772;-76
2022/11/04 02:16:01;;;;;;;;;4.40;4.40;;;;;;;;5153927;28;8849;-74
2022/11/04 02:19:13;;;;;;;;;2.40;2.40;;;;;;;;5172557;28;8807;-75
2022/11/04 02:21:56;;;;;;;;;5.80;5.60;;;;;;;;5186559;28;8788;-72
2022/11/04 02:24:27;;;;;;;;;10.60;7.80;;;;;;;;5186171;28;8822;-73
2022/11/04 02:27:08;;;;;;;;;5.25;5.25;;;;;;;;5185621;28;8874;-72
2022/11/04 02:29:49;;;;;;;;;5.00;5.00;;;;;;;;5185980;28;9494;-73
2022/11/04 02:32:30;;;;;;;;;3.60;2.40;;;;;;;;5170035;28;8788;-75
2022/11/04 02:35:07;;;;;;;;;2.80;2.80;;;;;;;;5170099;28;8822;-76
2022/11/04 02:37:50;;;;;;;;;11.00;10.40;;;;;;;;5166771;28;8768;-75
2022/11/04 02:40:28;;;;;;;;;7.80;7.80;;;;;;;;5166941;28;8895;-74
2022/11/04 02:43:08;;;;;;;;;6.20;6.20;;;;;;;;5201814;28;8845;-73
2022/11/04 02:45:44;;;;;;;;;5.00;5.00;;;;;;;;5186674;28;8891;-72
2022/11/04 02:48:27;;;;;;;;;3.20;3.20;;;;;;;;5204276;28;8786;-71
2022/11/04 02:51:19;;;;;;;;;3.60;3.60;;;;;;;;5204483;28;8924;-72
2022/11/04 02:54:20;;;;;;;;;5.00;5.00;;;;;;;;5186825;28;8773;-72
2022/11/04 02:56:53;;;;;;;;;4.00;4.00;;;;;;;;5203384;28;8920;-72
2022/11/04 02:59:34;;;;;;;;;5.40;5.40;;;;;;;;5202906;28;8785;-71
2022/11/04 03:02:12;;;;;;;;;24.20;24.00;;;;;;;;5202719;28;8956;-71
2022/11/04 03:04:46;;;;;;;;;10.20;10.20;;;;;;;;5186472;28;9579;-71
2022/11/04 03:07:21;;;;;;;;;4.00;4.00;;;;;;;;5202701;28;8817;-71
2022/11/04 03:09:56;;;;;;;;;6.20;6.20;;;;;;;;5186462;28;8778;-71
2022/11/04 03:13:06;;;;;;;;;7.20;7.20;;;;;;;;5188777;28;8798;-72
2022/11/04 03:15:38;;;;;;;;;11.00;10.80;;;;;;;;5208742;28;9607;-71
2022/11/04 03:18:10;;;;;;;;;11.60;10.80;;;;;;;;5213676;28;8805;-73
2022/11/04 03:21:01;;;;;;;;;15.80;15.20;;;;;;;;5202547;28;8789;-72
2022/11/04 03:23:33;;;;;;;;;8.20;8.20;;;;;;;;5199888;28;9606;-71
2022/11/04 03:26:08;;;;;;;;;9.20;9.20;;;;;;;;5202356;28;8810;-73
2022/11/04 03:29:12;;;;;;;;;5.80;5.80;;;;;;;;5202108;28;8809;-72
2022/11/04 03:31:47;;;;;;;;;2.00;2.00;;;;;;;;5202001;28;9563;-72
2022/11/04 03:34:18;;;;;;;;;17.60;17.60;;;;;;;;5202451;28;8796;-72
2022/11/04 03:36:49;;;;;;;;;15.00;15.00;;;;;;;;5202326;28;8773;-71
2022/11/04 03:39:20;;;;;;;;;7.80;7.80;;;;;;;;5202137;28;8792;-72
2022/11/04 03:41:54;;;;;;;;;9.20;9.20;;;;;;;;5202752;28;9524;-72
2022/11/04 03:44:43;;;;;;;;;9.40;9.40;;;;;;;;5201853;28;8813;-72
2022/11/04 03:47:35;;;;;;;;;5.00;5.00;;;;;;;;5201592;28;8817;-73
2022/11/04 03:50:08;;;;;;;;;9.40;8.60;;;;;;;;5184708;28;8818;-73
2022/11/04 03:52:58;;;;;;;;;7.80;7.40;;;;;;;;5202732;28;9559;-73
2022/11/04 03:55:53;;;;;;;;;7.60;7.60;;;;;;;;5202003;28;9606;-72
2022/11/04 03:58:44;;;;;;;;;24.40;24.40;;;;;;;;5201574;28;8934;-72
2022/11/04 04:01:24;;;;;;;;;2.80;2.80;;;;;;;;5212503;28;8797;-72
2022/11/04 04:04:03;;;;;;;;;4.60;4.60;;;;;;;;5182401;28;8841;-69
2022/11/04 04:06:35;;;;;;;;;3.60;3.60;;;;;;;;5182957;28;8856;-68
2022/11/04 04:09:14;;;;;;;;;8.20;8.20;;;;;;;;5181410;28;8788;-68
2022/11/04 04:11:51;;;;;;;;;5.60;5.60;;;;;;;;5195268;28;8777;-68
2022/11/04 04:14:40;;;;;;;;;9.80;9.80;;;;;;;;5185603;28;8790;-68
2022/11/04 04:17:46;;;;;;;;;8.60;6.80;;;;;;;;5202717;28;9504;-69
2022/11/04 04:20:19;;;;;;;;;9.00;9.00;;;;;;;;5143789;28;8882;-69
2022/11/04 04:22:56;;;;;;;;;9.80;9.80;;;;;;;;5190837;27;8832;-69
2022/11/04 04:28:55;;;;;;;;;16.20;16.20;;;;;;;;5201251;28;8774;-69
2022/11/04 04:34:21;;;;;;;;;8.60;8.60;;;;;;;;5202590;28;8769;-73
2022/11/04 04:37:02;;;;;;;;;15.20;14.40;;;;;;;;5201543;28;8781;-73
2022/11/04 04:45:35;;;;;;;;;9.20;8.80;;;;;;;;5205042;27;8850;-73
2022/11/04 04:48:07;;;;;;;;;8.40;8.40;;;;;;;;5308631;27;8778;-75
2022/11/04 04:50:44;;;;;;;;;20.40;19.80;;;;;;;;5255779;28;8915;-74
2022/11/04 04:53:15;;;;;;;;;22.40;19.00;;;;;;;;5163844;28;9555;-75
2022/11/04 04:56:05;;;;;;;;;17.80;17.80;;;;;;;;5180870;28;8910;-72
2022/11/04 04:58:36;;;;;;;;;8.40;8.40;;;;;;;;5197300;28;9606;-70
2022/11/04 05:01:25;;;;;;;;;15.40;14.40;;;;;;;;5186717;28;8801;-68
2022/11/04 05:03:56;;;;;;;;;9.25;8.75;;;;;;;;5200902;28;8889;-69
2022/11/04 05:06:27;;;;;;;;;6.60;5.80;;;;;;;;5201802;28;10974;-71
2022/11/04 05:08:58;;;;;;;;;6.40;6.20;;;;;;;;5201851;28;8786;-71
2022/11/04 05:11:29;;;;;;;;;11.00;10.00;;;;;;;;5163485;28;8808;-69
2022/11/04 05:14:00;;;;;;;;;16.20;16.20;;;;;;;;5182046;28;8864;-69
2022/11/04 05:16:50;;;;;;;;;13.20;13.20;;;;;;;;5180545;28;8800;-68
2022/11/04 05:19:21;;;;;;;;;19.80;17.40;;;;;;;;5192172;28;9538;-68
2022/11/04 05:21:52;;;;;;;;;9.00;9.00;;;;;;;;5182085;28;8797;-68
2022/11/04 05:24:23;;;;;;;;;7.20;7.20;;;;;;;;5198281;28;8821;-66
2022/11/04 05:26:54;;;;;;;;;11.60;11.60;;;;;;;;5199998;28;8817;-67
2022/11/04 05:29:25;;;;;;;;;7.40;7.40;;;;;;;;5180682;28;8992;-68
2022/11/04 05:32:15;;;;;;;;;24.20;24.20;;;;;;;;5178601;28;8877;-68
2022/11/04 05:34:47;;;;;;;;;23.00;21.20;;;;;;;;5183857;28;8786;-68
2022/11/04 05:37:18;;;;;;;;;20.00;19.20;;;;;;;;5184266;28;8832;-69
2022/11/04 05:39:49;;;;;;;;;12.40;12.40;;;;;;;;5182346;28;8782;-68
2022/11/04 05:42:20;;;;;;;;;17.60;17.60;;;;;;;;5196816;28;8822;-70
2022/11/04 05:44:51;;;;;;;;;24.20;24.20;;;;;;;;5182242;28;8826;-71
2022/11/04 05:47:22;;;;;;;;;17.25;17.25;;;;;;;;5201098;28;8785;-73
2022/11/04 05:49:53;;;;;;;;;25.80;25.80;;;;;;;;5168093;28;8786;-77
2022/11/04 05:52:25;;;;;;;;;17.40;17.40;;;;;;;;5164081;28;8884;-84
2022/11/04 05:54:57;;;;;;;;;16.20;16.20;;;;;;;;5167669;28;8801;-80
2022/11/04 05:57:29;;;;;;;;;97.80;76.60;;;;;;;;5183336;28;8789;-80
2022/11/04 06:00:02;;;;;;;;;26.60;24.80;;;;;;;;5199828;28;9580;-85
2022/11/04 06:02:36;;;;;;;;;35.60;33.00;;;;;;;;5200289;28;8821;-85
2022/11/04 06:05:09;;;;;;;;;7.40;6.80;;;;;;;;5167887;28;8828;-85
2022/11/04 06:07:59;;;;;;;;;32.20;29.00;;;;;;;;5186034;28;8936;-85
2022/11/04 06:10:31;;;;;;;;;13.00;13.00;;;;;;;;5167630;28;8870;-84
2022/11/04 06:13:03;;;;;;;;;15.00;15.00;;;;;;;;5170056;28;8797;-82
2022/11/04 06:15:35;;;;;;;;;13.40;13.00;;;;;;;;5189304;28;8789;-82
2022/11/04 06:18:07;;;;;;;;;27.20;25.40;;;;;;;;5186747;28;8794;-81
2022/11/04 06:20:39;;;;;;;;;27.80;26.60;;;;;;;;5170568;28;8789;-81
2022/11/04 06:23:11;;;;;;;;;32.80;30.20;;;;;;;;5203181;28;8821;-82
2022/11/04 06:25:43;;;;;;;;;18.60;17.80;;;;;;;;5186964;28;8828;-81
2022/11/04 06:28:15;;;;;;;;;25.00;24.80;;;;;;;;5203299;28;8790;-81
2022/11/04 06:30:47;;;;;;;;;25.40;24.20;;;;;;;;5186597;28;8806;-80
2022/11/04 06:33:19;;;;;;;;;25.20;22.00;;;;;;;;5187343;28;8793;-83
2022/11/04 06:35:51;;;;;;;;;25.00;23.60;;;;;;;;5182241;28;8780;-81
2022/11/04 06:38:24;;;;;;;;;20.60;19.80;;;;;;;;5150594;28;8795;-84
2022/11/04 06:40:56;;;;;;;;;11.80;10.80;;;;;;;;5166694;28;8849;-82
2022/11/04 06:43:29;;;;;;;;;14.40;14.00;;;;;;;;5166437;28;8962;-81
2022/11/04 06:46:27;;;;;;;;;29.00;27.60;;;;;;;;5168758;28;8818;-81
2022/11/04 06:48:59;;;;;;;;;18.80;18.80;;;;;;;;5183753;28;8788;-81
2022/11/04 06:51:31;;;;;;;;;21.80;18.20;;;;;;;;5186244;28;8812;-81
2022/11/04 06:54:02;;;;;;;;;26.60;25.00;;;;;;;;5170257;28;8924;-80
2022/11/04 06:56:34;;;;;;;;;22.00;21.80;;;;;;;;5166697;28;8802;-80
2022/11/04 06:59:06;;;;;;;;;15.60;15.60;;;;;;;;5166727;28;8776;-82
2022/11/04 07:01:38;;;;;;;;;15.80;15.80;;;;;;;;5167042;28;8847;-79
2022/11/04 07:04:10;;;;;;;;;17.80;17.80;;;;;;;;5150211;28;8839;-82
2022/11/04 07:06:42;;;;;;;;;29.00;27.20;;;;;;;;5166364;28;8912;-82
2022/11/04 07:09:14;;;;;;;;;31.80;30.20;;;;;;;;5153384;28;8793;-78
2022/11/04 07:11:46;;;;;;;;;36.60;34.20;;;;;;;;5181882;28;8792;-81
2022/11/04 07:14:19;;;;;;;;;15.60;15.60;;;;;;;;5158178;28;8830;-83
2022/11/04 07:16:50;;;;;;;;;14.00;13.60;;;;;;;;5184401;28;8792;-75
2022/11/04 07:19:39;;;;;;;;;15.40;15.00;;;;;;;;5194406;28;8826;-74
2022/11/04 07:22:10;;;;;;;;;31.40;30.80;;;;;;;;5178070;28;8854;-75
2022/11/04 07:24:42;;;;;;;;;26.40;26.20;;;;;;;;5191645;28;8842;-75
2022/11/04 07:27:13;;;;;;;;;24.20;22.60;;;;;;;;5195740;28;8807;-76
2022/11/04 07:29:45;;;;;;;;;39.40;36.80;;;;;;;;5200079;28;8799;-74
2022/11/04 07:32:16;;;;;;;;;36.80;33.40;;;;;;;;5200667;28;8801;-74
2022/11/04 07:34:47;;;;;;;;;60.00;46.60;;;;;;;;5200250;28;8801;-74
2022/11/04 07:37:20;;;;;;;;;68.80;53.40;;;;;;;;5184054;28;8955;-74
2022/11/04 07:40:10;;;;;;;;;71.00;58.00;;;;;;;;5201042;28;8823;-75
2022/11/04 07:42:41;;;;;;;;;50.60;43.20;;;;;;;;5200645;28;8815;-77
2022/11/04 07:45:19;;;;;;;;;35.80;34.80;;;;;;;;5184464;28;8824;-74
2022/11/04 07:47:50;;;;;;;;;22.25;22.25;;;;;;;;5201619;28;8801;-73
2022/11/04 07:50:21;;;;;;;;;27.25;27.25;;;;;;;;5201934;28;11141;-74
2022/11/04 07:53:10;;;;;;;;;20.60;20.60;;;;;;;;5201744;28;8813;-73
2022/11/04 07:55:45;;;;;;;;;49.40;43.40;;;;;;;;5200972;28;9665;-73
2022/11/04 07:58:17;;;;;;;;;26.00;22.20;;;;;;;;5185375;28;8794;-74
2022/11/04 08:01:08;;;;;;;;;24.60;23.00;;;;;;;;5203404;28;8805;-74
2022/11/04 08:03:39;;;;;;;;;36.80;33.60;;;;;;;;5185488;28;8847;-74
2022/11/04 08:06:11;;;;;;;;;27.40;26.80;;;;;;;;5185540;28;8770;-74
2022/11/04 08:08:43;;;;;;;;;30.80;30.80;;;;;;;;5184780;28;8836;-75
2022/11/04 08:11:15;;;;;;;;;42.20;40.60;;;;;;;;5201158;28;8815;-74
2022/11/04 08:13:46;;;;;;;;;61.20;49.60;;;;;;;;5201604;28;8785;-73
2022/11/04 08:16:18;;;;;;;;;67.00;51.60;;;;;;;;5200982;28;8798;-74
2022/11/04 08:18:51;;;;;;;;;66.80;53.80;;;;;;;;5185265;28;8816;-73
2022/11/04 08:21:22;;;;;;;;;74.80;59.20;;;;;;;;5206311;28;8769;-72
2022/11/04 08:24:11;;;;;;;;;65.20;53.80;;;;;;;;5201684;28;9698;-75
2022/11/04 08:26:42;;;;;;;;;64.50;53.50;;;;;;;;5185252;28;8948;-75
2022/11/04 08:29:13;;;;;;;;;53.00;45.40;;;;;;;;5202337;28;10780;-75
2022/11/04 08:31:44;;;;;;;;;43.50;40.75;;;;;;;;5185360;28;8857;-74
2022/11/04 08:34:17;;;;;;;;;68.40;57.20;;;;;;;;5183964;28;8824;-73
2022/11/04 08:36:48;;;;;;;;;38.80;35.20;;;;;;;;5201533;28;9542;-74
2022/11/04 08:39:19;;;;;;;;;55.40;47.60;;;;;;;;5165311;28;8809;-73
2022/11/04 08:41:52;;;;;;;;;68.60;57.00;;;;;;;;5183092;28;8824;-74
2022/11/04 08:44:41;;;;;;;;;17.20;14.20;;;;;;;;5199754;28;9910;-75
2022/11/04 08:47:12;;;;;;;;;70.60;56.60;;;;;;;;5200631;28;8800;-73
2022/11/04 08:49:43;;;;;;;;;32.75;31.00;;;;;;;;5183111;28;8789;-74
2022/11/04 08:52:14;;;;;;;;;72.50;58.50;;;;;;;;5182380;28;9029;-75
2022/11/04 08:54:45;;;;;;;;;67.75;56.25;;;;;;;;5199390;28;9255;-73
2022/11/04 08:57:16;;;;;;;;;37.00;35.00;;;;;;;;5200506;28;9697;-75
2022/11/04 08:59:47;;;;;;;;;37.25;37.00;;;;;;;;5200530;28;11580;-74
2022/11/04 09:02:18;;;;;;;;;34.50;33.50;;;;;;;;5182425;28;8853;-72
2022/11/04 09:04:49;;;;;;;;;30.80;30.80;;;;;;;;5166501;28;8829;-72
2022/11/04 09:07:19;;;;;;;;;19.50;19.50;;;;;;;;5199084;28;8805;-72
2022/11/04 09:10:09;;;;;;;;;25.20;25.20;;;;;;;;5198680;28;8805;-72
2022/11/04 09:12:41;;;;;;;;;20.60;20.60;;;;;;;;5181402;28;8813;-71
2022/11/04 09:15:12;;;;;;;;;26.20;25.60;;;;;;;;5199895;28;8943;-73
2022/11/04 09:17:43;;;;;;;;;26.60;24.80;;;;;;;;5182607;28;8836;-74
2022/11/04 09:20:14;;;;;;;;;32.00;32.00;;;;;;;;5182675;28;8805;-76
2022/11/04 09:22:45;;;;;;;;;23.75;23.50;;;;;;;;5198803;28;9592;-70
2022/11/04 09:25:16;;;;;;;;;28.25;27.75;;;;;;;;5193526;28;11402;-75
2022/11/04 09:27:46;;;;;;;;;32.40;32.40;;;;;;;;5192815;28;8809;-73
2022/11/04 09:30:18;;;;;;;;;25.50;24.50;;;;;;;;5199298;28;8781;-75
2022/11/04 09:32:48;;;;;;;;;32.80;32.80;;;;;;;;5180862;28;8815;-75
2022/11/04 09:35:20;;;;;;;;;25.75;21.50;;;;;;;;5164060;28;8868;-74
2022/11/04 09:38:09;;;;;;;;;25.60;25.20;;;;;;;;5181348;28;11480;-76
2022/11/04 09:40:40;;;;;;;;;23.75;23.25;;;;;;;;5163940;28;8784;-76
2022/11/04 09:43:31;;;;;;;;;48.00;43.60;;;;;;;;5163876;28;9151;-76
2022/11/04 09:46:20;;;;;;;;;51.60;45.80;;;;;;;;5197527;28;8939;-78
2022/11/04 09:48:54;;;;;;;;;51.00;45.20;;;;;;;;5183170;28;8776;-80
2022/11/04 09:51:25;;;;;;;;;25.00;24.60;;;;;;;;5194158;28;8810;-76
2022/11/04 09:54:02;;;;;;;;;25.80;25.00;;;;;;;;5151017;28;8876;-78
2022/11/04 09:56:54;;;;;;;;;22.40;21.40;;;;;;;;5187487;28;8824;-75
2022/11/04 09:59:27;;;;;;;;;19.20;19.20;;;;;;;;5165803;28;8791;-74
2022/11/04 10:02:22;;;;;;;;;15.60;15.60;;;;;;;;5202855;28;8817;-77
2022/11/04 10:05:19;;;;;;;;;23.20;23.20;;;;;;;;5203895;28;8921;-74
2022/11/04 10:08:07;;;;;;;;;9.80;9.80;;;;;;;;5176247;28;8792;-76
2022/11/04 10:10:47;;;;;;;;;13.60;13.60;;;;;;;;5188615;28;8832;-77
2022/11/04 10:13:31;;;;;;;;;5.20;5.20;;;;;;;;5170673;28;8902;-75
2022/11/04 10:16:05;;;;;;;;;10.80;10.80;;;;;;;;5183028;28;8807;-75
2022/11/04 10:18:45;;;;;;;;;20.00;20.00;;;;;;;;5182752;28;8826;-74
2022/11/04 10:21:23;;;;;;;;;12.20;12.20;;;;;;;;5166948;28;8907;-75
2022/11/04 10:23:56;;;;;;;;;20.80;20.80;;;;;;;;5166514;28;9502;-75
2022/11/04 10:26:27;;;;;;;;;53.20;46.20;;;;;;;;5181066;28;8761;-75
2022/11/04 10:29:04;;;;;;;;;9.50;9.50;;;;;;;;5186684;28;8827;-76
2022/11/04 10:31:37;;;;;;;;;15.20;15.20;;;;;;;;5203004;28;10013;-75
2022/11/04 10:34:32;;;;;;;;;31.80;30.60;;;;;;;;5202750;28;8818;-75
2022/11/04 10:37:09;;;;;;;;;3.80;3.80;;;;;;;;5186972;28;9453;-73
2022/11/04 10:39:42;;;;;;;;;2.60;2.60;;;;;;;;5204500;28;8784;-76
2022/11/04 10:42:19;;;;;;;;;10.60;10.60;;;;;;;;5186577;28;8785;-76
2022/11/04 10:44:51;;;;;;;;;5.80;5.80;;;;;;;;5182390;28;9098;-75
2022/11/04 10:47:22;;;;;;;;;13.80;13.80;;;;;;;;5172618;28;8792;-75
2022/11/04 10:49:56;;;;;;;;;19.80;18.00;;;;;;;;5166155;28;9523;-70
2022/11/04 10:52:45;;;;;;;;;28.20;28.20;;;;;;;;5182642;28;8812;-76
2022/11/04 10:55:28;;;;;;;;;34.40;31.40;;;;;;;;5165770;28;8796;-78
2022/11/04 10:58:00;;;;;;;;;22.80;22.20;;;;;;;;5166074;28;8780;-77
2022/11/04 11:00:35;;;;;;;;;26.00;26.00;;;;;;;;5166037;28;9514;-76
2022/11/04 11:03:26;;;;;;;;;31.20;31.00;;;;;;;;5150337;28;8816;-75
2022/11/04 11:06:24;;;;;;;;;68.40;53.00;;;;;;;;5151182;28;8894;-75
2022/11/04 11:08:58;;;;;;;;;44.20;40.80;;;;;;;;5185284;28;9515;-74
2022/11/04 11:11:37;;;;;;;;;23.40;23.40;;;;;;;;5186135;28;8814;-76
2022/11/04 11:14:34;;;;;;;;;18.20;18.00;;;;;;;;5202172;28;8862;-74
2022/11/04 11:17:14;;;;;;;;;43.40;39.00;;;;;;;;5186459;28;8774;-75
2022/11/04 11:19:59;;;;;;;;;52.20;46.60;;;;;;;;5169769;28;8805;-73
2022/11/04 11:22:37;;;;;;;;;50.80;42.60;;;;;;;;5186694;28;8912;-75
2022/11/04 11:25:27;;;;;;;;;49.00;42.20;;;;;;;;5169838;28;8817;-75
2022/11/04 11:28:22;;;;;;;;;42.80;39.40;;;;;;;;5202976;28;9543;-75
2022/11/04 11:30:56;;;;;;;;;52.60;46.20;;;;;;;;5201784;28;8801;-75
2022/11/04 11:33:35;;;;;;;;;47.20;41.20;;;;;;;;5185219;28;8769;-75
2022/11/04 11:36:18;;;;;;;;;35.00;32.20;;;;;;;;5169820;28;8861;-76
2022/11/04 11:39:09;;;;;;;;;50.80;43.00;;;;;;;;5201901;28;8821;-76
2022/11/04 11:41:52;;;;;;;;;53.00;45.20;;;;;;;;5172476;28;8773;-75
2022/11/04 11:44:47;;;;;;;;;46.80;42.80;;;;;;;;5201074;28;8959;-75
2022/11/04 11:47:40;;;;;;;;;62.40;50.20;;;;;;;;5201672;28;8785;-75
2022/11/04 11:50:19;;;;;;;;;60.60;50.60;;;;;;;;5202550;28;8781;-74
2022/11/04 11:52:54;;;;;;;;;60.60;51.20;;;;;;;;5185484;28;8798;-79
2022/11/04 11:55:33;;;;;;;;;34.80;34.00;;;;;;;;5169306;28;8785;-75
2022/11/04 11:58:23;;;;;;;;;54.80;45.60;;;;;;;;5169132;28;8765;-75
2022/11/04 12:01:01;;;;;;;;;59.40;50.20;;;;;;;;5202099;28;8907;-75
2022/11/04 12:03:36;;;;;;;;;61.80;51.80;;;;;;;;5200873;28;8821;-75
2022/11/04 12:06:16;;;;;;;;;65.60;53.00;;;;;;;;5168266;28;8805;-75
2022/11/04 12:08:50;;;;;;;;;68.80;57.40;;;;;;;;5184851;28;8813;-74
2022/11/04 12:11:27;;;;;;;;;61.40;52.60;;;;;;;;5202036;28;8788;-74
2022/11/04 12:14:05;;;;;;;;;62.20;52.00;;;;;;;;5201638;28;8777;-77
2022/11/04 12:16:38;;;;;;;;;52.20;46.00;;;;;;;;5201530;28;8798;-75
2022/11/04 12:19:19;;;;;;;;;15.80;15.60;;;;;;;;5183991;28;8831;-74
2022/11/04 12:21:53;;;;;;;;;62.80;52.00;;;;;;;;5192042;28;8804;-75
2022/11/04 12:24:40;;;;;;;;;58.80;50.00;;;;;;;;5168481;28;9606;-76
2022/11/04 12:27:23;;;;;;;;;69.00;56.40;;;;;;;;5200345;28;8802;-75
2022/11/04 12:30:09;;;;;;;;;82.40;59.60;;;;;;;;5167265;28;8888;-75
2022/11/04 12:32:59;;;;;;;;;85.00;65.80;;;;;;;;5183633;28;8784;-75
2022/11/04 12:35:45;;;;;;;;;79.80;63.40;;;;;;;;5164357;28;8868;-76
2022/11/04 12:38:35;;;;;;;;;79.20;60.40;;;;;;;;5165030;28;8845;-77
2022/11/04 12:41:06;;;;;;;;;61.20;52.60;;;;;;;;5168400;28;8911;-77
2022/11/04 12:43:50;;;;;;;;;63.60;50.00;;;;;;;;5165578;27;8835;-77
2022/11/04 12:46:34;;;;;;;;;51.00;42.80;;;;;;;;5167945;28;9621;-76
2022/11/04 12:49:29;;;;;;;;;50.60;45.40;;;;;;;;5200779;28;8977;-77
2022/11/04 12:52:18;;;;;;;;;54.80;46.60;;;;;;;;5201244;28;9686;-75
2022/11/04 12:55:08;;;;;;;;;52.60;46.80;;;;;;;;5202103;28;8939;-76
2022/11/04 12:57:45;;;;;;;;;62.60;52.40;;;;;;;;5184619;28;8892;-76
2022/11/04 13:00:37;;;;;;;;;56.20;46.00;;;;;;;;5186163;28;8778;-80
2022/11/04 13:03:30;;;;;;;;;69.00;53.80;;;;;;;;5198797;28;8809;-81
2022/11/04 13:06:01;;;;;;;;;60.80;52.00;;;;;;;;5179875;28;8800;-76
2022/11/04 13:08:44;;;;;;;;;81.40;64.00;;;;;;;;5180105;28;8808;-76
2022/11/04 13:12:00;;;;;;;;;65.40;53.80;;;;;;;;5191988;28;8808;-74
2022/11/04 13:14:34;;;;;;;;;55.60;46.20;;;;;;;;5192608;28;8805;-76
2022/11/04 13:17:08;;;;;;;;;59.80;50.20;;;;;;;;5179461;28;8819;-76
2022/11/04 13:19:45;;;;;;;;;63.80;49.20;;;;;;;;5192356;28;8963;-75
2022/11/04 13:22:19;;;;;;;;;62.00;51.00;;;;;;;;5240927;27;8819;-76
2022/11/04 13:24:54;;;;;;;;;61.60;52.60;;;;;;;;5290773;27;8807;-77
2022/11/04 13:27:32;;;;;;;;;55.00;45.80;;;;;;;;5220782;27;8851;-76
2022/11/04 13:30:05;;;;;;;;;61.60;53.20;;;;;;;;5220105;28;8799;-75
2022/11/04 13:32:44;;;;;;;;;60.40;50.40;;;;;;;;5201221;28;8840;-75
2022/11/04 13:35:43;;;;;;;;;44.00;41.80;;;;;;;;5191426;28;8818;-75
2022/11/04 13:38:18;;;;;;;;;60.40;51.00;;;;;;;;5184157;28;8819;-75
2022/11/04 13:40:53;;;;;;;;;53.80;45.60;;;;;;;;5164079;28;9031;-79
2022/11/04 13:43:38;;;;;;;;;48.20;43.00;;;;;;;;5170369;28;8821;-75
2022/11/04 13:46:14;;;;;;;;;44.60;42.00;;;;;;;;5209988;28;9521;-76
2022/11/04 13:48:53;;;;;;;;;49.40;43.40;;;;;;;;5184493;28;8780;-76
2022/11/04 13:51:32;;;;;;;;;44.60;42.40;;;;;;;;5183798;28;8912;-76
2022/11/04 13:54:30;;;;;;;;;43.60;40.40;;;;;;;;5193830;28;8785;-77
2022/11/04 13:57:04;;;;;;;;;61.80;52.00;;;;;;;;5170694;28;8787;-75
2022/11/04 13:59:35;;;;;;;;;38.80;36.80;;;;;;;;5220561;27;8755;-74
2022/11/04 14:02:12;;;;;;;;;37.20;33.60;;;;;;;;5186769;28;8808;-75
2022/11/04 14:04:44;;;;;;;;;38.00;37.40;;;;;;;;5179077;28;8826;-75
2022/11/04 14:07:16;;;;;;;;;51.20;46.40;;;;;;;;5183623;28;8848;-75
2022/11/04 14:09:54;;;;;;;;;39.20;38.80;;;;;;;;5202059;27;8805;-74
2022/11/04 14:12:26;;;;;;;;;53.40;47.60;;;;;;;;5195807;28;8806;-76
2022/11/04 14:15:07;;;;;;;;;49.20;44.80;;;;;;;;5206834;27;8892;-76
2022/11/04 14:17:38;;;;;;;;;32.20;32.20;;;;;;;;5213719;28;8797;-75
2022/11/04 14:20:30;;;;;;;;;31.20;30.60;;;;;;;;5189655;28;8963;-81
2022/11/04 14:23:02;;;;;;;;;33.20;32.60;;;;;;;;5162782;28;8854;-78
2022/11/04 14:25:35;;;;;;;;;29.40;29.40;;;;;;;;5167900;28;9559;-76
2022/11/04 14:28:09;;;;;;;;;43.60;41.00;;;;;;;;5161256;28;8792;-75
2022/11/04 14:30:49;;;;;;;;;51.40;42.00;;;;;;;;5161569;28;8795;-75
2022/11/04 14:33:26;;;;;;;;;50.60;45.40;;;;;;;;5163088;28;8800;-76
2022/11/04 14:36:13;;;;;;;;;60.00;48.00;;;;;;;;5194297;28;8832;-77
2022/11/04 14:39:11;;;;;;;;;50.00;45.00;;;;;;;;5188534;28;8805;-76
2022/11/04 14:41:50;;;;;;;;;38.60;38.20;;;;;;;;5185050;28;8797;-76
2022/11/04 14:44:33;;;;;;;;;46.00;40.40;;;;;;;;5208000;28;8833;-78
2022/11/04 14:47:14;;;;;;;;;48.80;43.00;;;;;;;;5168125;28;9550;-76
2022/11/04 14:49:47;;;;;;;;;43.40;40.60;;;;;;;;5187679;28;8804;-76
2022/11/04 14:52:24;;;;;;;;;37.40;34.60;;;;;;;;5184636;28;9644;-78
2022/11/04 14:54:57;;;;;;;;;67.20;54.20;;;;;;;;5184460;28;8785;-74
2022/11/04 14:57:48;;;;;;;;;38.80;36.00;;;;;;;;5187096;28;8886;-73
2022/11/04 15:00:22;;;;;;;;;34.80;31.40;;;;;;;;5200756;28;8808;-73
2022/11/04 15:03:12;;;;;;;;;48.60;42.80;;;;;;;;5180146;28;8808;-76
2022/11/04 15:05:50;;;;;;;;;39.80;37.20;;;;;;;;5180871;28;8788;-77
2022/11/04 15:08:32;;;;;;;;;41.60;38.80;;;;;;;;5180438;28;8805;-74
2022/11/04 15:11:06;;;;;;;;;50.60;43.40;;;;;;;;5164230;28;9522;-75
2022/11/04 15:13:48;;;;;;;;;51.20;46.00;;;;;;;;5163707;28;8807;-72
2022/11/04 15:16:24;;;;;;;;;48.80;44.20;;;;;;;;5163916;28;8812;-73
2022/11/04 15:18:57;;;;;;;;;36.60;35.00;;;;;;;;5164028;28;8812;-73
2022/11/04 15:21:28;;;;;;;;;41.40;35.00;;;;;;;;5164048;28;8792;-75
2022/11/04 15:24:17;;;;;;;;;12.60;12.60;;;;;;;;5179864;28;8807;-75
2022/11/04 15:26:49;;;;;;;;;40.80;39.00;;;;;;;;5164865;28;8783;-74
2022/11/04 15:29:21;;;;;;;;;58.40;47.40;;;;;;;;5201651;28;8814;-77
2022/11/04 15:31:54;;;;;;;;;180.33;145.67;;;;;;;;5183996;28;8845;-73
2022/11/04 15:34:27;;;;;;;;;39.80;37.40;;;;;;;;5199814;28;9428;-75
2022/11/04 15:37:16;;;;;;;;;52.40;42.60;;;;;;;;5200397;28;8781;-73
2022/11/04 15:39:49;;;;;;;;;34.20;33.40;;;;;;;;5179767;28;8933;-71
2022/11/04 15:42:42;;;;;;;;;25.80;25.80;;;;;;;;5179742;28;8788;-73
2022/11/04 15:45:32;;;;;;;;;19.00;19.00;;;;;;;;5193992;28;8799;-73
2022/11/04 15:48:21;;;;;;;;;21.60;21.40;;;;;;;;5203375;28;8808;-72
2022/11/04 15:50:55;;;;;;;;;22.20;21.80;;;;;;;;5187477;28;8801;-71
2022/11/04 15:53:26;;;;;;;;;26.20;25.80;;;;;;;;5214282;28;8801;-74
2022/11/04 15:55:59;;;;;;;;;20.80;20.80;;;;;;;;5184155;28;8926;-75
2022/11/04 15:58:30;;;;;;;;;21.20;20.80;;;;;;;;5211951;28;8804;-72
2022/11/04 16:01:01;;;;;;;;;20.80;20.00;;;;;;;;5207453;28;8794;-73
2022/11/04 16:03:32;;;;;;;;;22.60;22.60;;;;;;;;5170738;28;8835;-74
2022/11/04 16:06:04;;;;;;;;;26.20;23.00;;;;;;;;5209130;28;9567;-74
2022/11/04 16:08:35;;;;;;;;;16.80;16.80;;;;;;;;5201574;28;8793;-76